sensor_id;sensor_type;location;lat;lon;timestamp;P1;durP1;ratioP1;P2;durP2;ratioP2
20417;SDS011;10368;51.436;6.774;2022-12-18T00:01:18;12.37;;;8.90;;
20417;SDS011;10368;51.436;6.774;2022-12-18T00:03:47;16.17;;;9.07;;
20417;SDS011;10368;51.436;6.774;2022-12-18T00:06:16;15.73;;;9.43;;
20417;SDS011;10368;51.436;6.774;2022-12-18T00:08:46;16.47;;;9.70;;
20417;SDS011;10368;51.436;6.774;2022-12-18T00:11:14;18.07;;;9.33;;
20417;SDS011;10368;51.436;6.774;2022-12-18T00:13:43;13.33;;;9.73;;
20417;SDS011;10368;51.436;6.774;2022-12-18T00:16:12;11.80;;;9.10;;
20417;SDS011;10368;51.436;6.774;2022-12-18T00:18:40;12.83;;;9.20;;
20417;SDS011;10368;51.436;6.774;2022-12-18T00:21:09;18.47;;;9.93;;
20417;SDS011;10368;51.436;6.774;2022-12-18T00:23:37;20.40;;;10.23;;
20417;SDS011;10368;51.436;6.774;2022-12-18T00:26:06;16.10;;;9.57;;
20417;SDS011;10368;51.436;6.774;2022-12-18T00:28:36;11.90;;;8.27;;
20417;SDS011;10368;51.436;6.774;2022-12-18T00:31:03;10.93;;;7.97;;
20417;SDS011;10368;51.436;6.774;2022-12-18T00:33:34;13.97;;;8.57;;
20417;SDS011;10368;51.436;6.774;2022-12-18T00:36:03;17.27;;;10.13;;
20417;SDS011;10368;51.436;6.774;2022-12-18T00:38:31;13.27;;;8.87;;
20417;SDS011;10368;51.436;6.774;2022-12-18T00:40:58;15.03;;;8.33;;
20417;SDS011;10368;51.436;6.774;2022-12-18T00:43:25;14.47;;;9.27;;
20417;SDS011;10368;51.436;6.774;2022-12-18T00:45:52;12.93;;;8.70;;
20417;SDS011;10368;51.436;6.774;2022-12-18T00:48:20;13.90;;;8.50;;
20417;SDS011;10368;51.436;6.774;2022-12-18T00:50:48;14.80;;;9.17;;
20417;SDS011;10368;51.436;6.774;2022-12-18T00:53:16;17.43;;;8.33;;
20417;SDS011;10368;51.436;6.774;2022-12-18T00:55:47;13.83;;;8.20;;
20417;SDS011;10368;51.436;6.774;2022-12-18T00:58:15;13.07;;;8.67;;
20417;SDS011;10368;51.436;6.774;2022-12-18T01:00:42;14.47;;;8.90;;
20417;SDS011;10368;51.436;6.774;2022-12-18T01:03:12;13.97;;;9.20;;
20417;SDS011;10368;51.436;6.774;2022-12-18T01:05:41;11.40;;;8.47;;
20417;SDS011;10368;51.436;6.774;2022-12-18T01:08:08;16.47;;;9.47;;
20417;SDS011;10368;51.436;6.774;2022-12-18T01:10:35;17.20;;;8.80;;
20417;SDS011;10368;51.436;6.774;2022-12-18T01:13:02;17.20;;;9.00;;
20417;SDS011;10368;51.436;6.774;2022-12-18T01:15:29;16.33;;;9.13;;
20417;SDS011;10368;51.436;6.774;2022-12-18T01:17:56;16.50;;;9.33;;
20417;SDS011;10368;51.436;6.774;2022-12-18T01:20:23;17.70;;;9.20;;
20417;SDS011;10368;51.436;6.774;2022-12-18T01:22:50;17.00;;;9.33;;
20417;SDS011;10368;51.436;6.774;2022-12-18T01:25:18;14.43;;;9.20;;
20417;SDS011;10368;51.436;6.774;2022-12-18T01:27:48;12.50;;;8.10;;
20417;SDS011;10368;51.436;6.774;2022-12-18T01:30:15;14.13;;;9.13;;
20417;SDS011;10368;51.436;6.774;2022-12-18T01:32:41;13.27;;;8.53;;
20417;SDS011;10368;51.436;6.774;2022-12-18T01:35:08;13.43;;;8.93;;
20417;SDS011;10368;51.436;6.774;2022-12-18T01:37:36;14.67;;;8.40;;
20417;SDS011;10368;51.436;6.774;2022-12-18T01:40:03;14.07;;;9.50;;
20417;SDS011;10368;51.436;6.774;2022-12-18T01:42:30;12.57;;;8.23;;
20417;SDS011;10368;51.436;6.774;2022-12-18T01:47:46;15.53;;;8.83;;
20417;SDS011;10368;51.436;6.774;2022-12-18T01:50:22;14.73;;;8.23;;
20417;SDS011;10368;51.436;6.774;2022-12-18T01:52:58;10.53;;;7.93;;
20417;SDS011;10368;51.436;6.774;2022-12-18T01:55:44;11.40;;;7.97;;
20417;SDS011;10368;51.436;6.774;2022-12-18T01:58:18;11.60;;;8.13;;
20417;SDS011;10368;51.436;6.774;2022-12-18T02:00:48;12.70;;;8.37;;
20417;SDS011;10368;51.436;6.774;2022-12-18T02:03:15;11.00;;;7.50;;
20417;SDS011;10368;51.436;6.774;2022-12-18T02:11:18;12.97;;;8.00;;
20417;SDS011;10368;51.436;6.774;2022-12-18T02:21:57;13.30;;;8.00;;
20417;SDS011;10368;51.436;6.774;2022-12-18T02:24:50;13.20;;;7.67;;
20417;SDS011;10368;51.436;6.774;2022-12-18T02:27:28;11.43;;;7.83;;
20417;SDS011;10368;51.436;6.774;2022-12-18T02:29:58;15.37;;;8.73;;
20417;SDS011;10368;51.436;6.774;2022-12-18T02:32:28;13.50;;;7.77;;
20417;SDS011;10368;51.436;6.774;2022-12-18T02:35:05;11.43;;;6.97;;
20417;SDS011;10368;51.436;6.774;2022-12-18T02:37:34;10.67;;;8.10;;
20417;SDS011;10368;51.436;6.774;2022-12-18T02:40:03;16.07;;;7.57;;
20417;SDS011;10368;51.436;6.774;2022-12-18T02:42:31;12.53;;;7.83;;
20417;SDS011;10368;51.436;6.774;2022-12-18T02:44:58;12.67;;;8.03;;
20417;SDS011;10368;51.436;6.774;2022-12-18T02:47:29;10.53;;;7.23;;
20417;SDS011;10368;51.436;6.774;2022-12-18T03:03:14;11.33;;;7.73;;
20417;SDS011;10368;51.436;6.774;2022-12-18T03:05:52;13.13;;;8.60;;
20417;SDS011;10368;51.436;6.774;2022-12-18T03:08:31;16.50;;;8.80;;
20417;SDS011;10368;51.436;6.774;2022-12-18T03:11:05;11.53;;;8.03;;
20417;SDS011;10368;51.436;6.774;2022-12-18T03:13:38;13.10;;;8.40;;
20417;SDS011;10368;51.436;6.774;2022-12-18T03:16:11;14.43;;;7.70;;
20417;SDS011;10368;51.436;6.774;2022-12-18T03:19:04;12.47;;;8.47;;
20417;SDS011;10368;51.436;6.774;2022-12-18T03:21:41;13.23;;;8.77;;
20417;SDS011;10368;51.436;6.774;2022-12-18T03:24:15;12.07;;;8.50;;
20417;SDS011;10368;51.436;6.774;2022-12-18T03:26:46;16.10;;;8.20;;
20417;SDS011;10368;51.436;6.774;2022-12-18T03:29:33;13.17;;;8.60;;
20417;SDS011;10368;51.436;6.774;2022-12-18T03:32:09;14.50;;;8.90;;
20417;SDS011;10368;51.436;6.774;2022-12-18T03:34:41;14.43;;;8.77;;
20417;SDS011;10368;51.436;6.774;2022-12-18T03:37:09;20.87;;;9.63;;
20417;SDS011;10368;51.436;6.774;2022-12-18T03:39:36;11.77;;;8.10;;
20417;SDS011;10368;51.436;6.774;2022-12-18T03:42:18;16.20;;;8.77;;
20417;SDS011;10368;51.436;6.774;2022-12-18T03:48:06;13.50;;;8.30;;
20417;SDS011;10368;51.436;6.774;2022-12-18T03:51:11;11.73;;;7.73;;
20417;SDS011;10368;51.436;6.774;2022-12-18T03:53:47;12.33;;;8.47;;
20417;SDS011;10368;51.436;6.774;2022-12-18T03:56:22;13.57;;;8.87;;
20417;SDS011;10368;51.436;6.774;2022-12-18T03:58:54;14.23;;;8.80;;
20417;SDS011;10368;51.436;6.774;2022-12-18T04:01:24;12.77;;;7.73;;
20417;SDS011;10368;51.436;6.774;2022-12-18T04:03:59;13.43;;;7.57;;
20417;SDS011;10368;51.436;6.774;2022-12-18T04:06:28;13.70;;;8.10;;
20417;SDS011;10368;51.436;6.774;2022-12-18T04:08:56;12.20;;;7.73;;
20417;SDS011;10368;51.436;6.774;2022-12-18T04:11:24;13.43;;;7.30;;
20417;SDS011;10368;51.436;6.774;2022-12-18T04:13:54;16.00;;;7.73;;
20417;SDS011;10368;51.436;6.774;2022-12-18T04:16:26;12.77;;;7.67;;
20417;SDS011;10368;51.436;6.774;2022-12-18T04:18:54;9.43;;;6.97;;
20417;SDS011;10368;51.436;6.774;2022-12-18T04:21:21;15.87;;;7.57;;
20417;SDS011;10368;51.436;6.774;2022-12-18T04:23:48;10.33;;;7.43;;
20417;SDS011;10368;51.436;6.774;2022-12-18T04:26:15;10.33;;;6.50;;
20417;SDS011;10368;51.436;6.774;2022-12-18T04:28:45;9.93;;;7.17;;
20417;SDS011;10368;51.436;6.774;2022-12-18T04:31:12;8.40;;;6.53;;
20417;SDS011;10368;51.436;6.774;2022-12-18T04:33:41;12.23;;;8.43;;
20417;SDS011;10368;51.436;6.774;2022-12-18T04:36:08;15.43;;;8.10;;
20417;SDS011;10368;51.436;6.774;2022-12-18T04:38:35;11.77;;;7.47;;
20417;SDS011;10368;51.436;6.774;2022-12-18T04:41:02;14.37;;;6.93;;
20417;SDS011;10368;51.436;6.774;2022-12-18T04:43:29;10.07;;;7.17;;
20417;SDS011;10368;51.436;6.774;2022-12-18T04:46:06;10.50;;;7.03;;
20417;SDS011;10368;51.436;6.774;2022-12-18T04:48:34;13.43;;;7.57;;
20417;SDS011;10368;51.436;6.774;2022-12-18T04:51:02;13.00;;;8.03;;
20417;SDS011;10368;51.436;6.774;2022-12-18T04:53:29;9.37;;;6.63;;
20417;SDS011;10368;51.436;6.774;2022-12-18T04:56:30;8.67;;;6.93;;
20417;SDS011;10368;51.436;6.774;2022-12-18T04:58:49;10.63;;;7.07;;
20417;SDS011;10368;51.436;6.774;2022-12-18T05:01:17;11.33;;;7.27;;
20417;SDS011;10368;51.436;6.774;2022-12-18T05:03:47;12.00;;;7.63;;
20417;SDS011;10368;51.436;6.774;2022-12-18T05:06:14;10.23;;;6.97;;
20417;SDS011;10368;51.436;6.774;2022-12-18T05:08:40;9.37;;;6.37;;
20417;SDS011;10368;51.436;6.774;2022-12-18T05:11:08;11.30;;;6.30;;
20417;SDS011;10368;51.436;6.774;2022-12-18T05:13:42;10.80;;;6.70;;
20417;SDS011;10368;51.436;6.774;2022-12-18T05:16:11;9.03;;;6.53;;
20417;SDS011;10368;51.436;6.774;2022-12-18T05:18:39;13.00;;;7.10;;
20417;SDS011;10368;51.436;6.774;2022-12-18T05:21:06;8.77;;;6.87;;
20417;SDS011;10368;51.436;6.774;2022-12-18T05:23:33;10.47;;;7.13;;
20417;SDS011;10368;51.436;6.774;2022-12-18T05:26:06;12.10;;;7.07;;
20417;SDS011;10368;51.436;6.774;2022-12-18T05:28:34;11.37;;;6.97;;
20417;SDS011;10368;51.436;6.774;2022-12-18T05:31:03;11.83;;;7.40;;
20417;SDS011;10368;51.436;6.774;2022-12-18T05:33:31;12.60;;;6.90;;
20417;SDS011;10368;51.436;6.774;2022-12-18T05:36:00;11.00;;;6.63;;
20417;SDS011;10368;51.436;6.774;2022-12-18T05:38:29;9.00;;;6.37;;
20417;SDS011;10368;51.436;6.774;2022-12-18T05:40:58;11.20;;;6.40;;
20417;SDS011;10368;51.436;6.774;2022-12-18T05:43:26;10.00;;;7.13;;
20417;SDS011;10368;51.436;6.774;2022-12-18T05:45:53;10.03;;;6.73;;
20417;SDS011;10368;51.436;6.774;2022-12-18T05:48:21;8.87;;;6.93;;
20417;SDS011;10368;51.436;6.774;2022-12-18T05:50:48;11.13;;;6.77;;
20417;SDS011;10368;51.436;6.774;2022-12-18T05:53:17;9.97;;;6.67;;
20417;SDS011;10368;51.436;6.774;2022-12-18T05:55:48;11.83;;;6.97;;
20417;SDS011;10368;51.436;6.774;2022-12-18T05:58:15;8.97;;;6.17;;
20417;SDS011;10368;51.436;6.774;2022-12-18T06:00:43;9.43;;;6.77;;
20417;SDS011;10368;51.436;6.774;2022-12-18T06:03:11;11.77;;;6.63;;
20417;SDS011;10368;51.436;6.774;2022-12-18T06:05:41;11.07;;;7.07;;
20417;SDS011;10368;51.436;6.774;2022-12-18T06:08:10;10.17;;;6.67;;
20417;SDS011;10368;51.436;6.774;2022-12-18T06:10:38;10.63;;;6.57;;
20417;SDS011;10368;51.436;6.774;2022-12-18T06:13:05;8.53;;;5.90;;
20417;SDS011;10368;51.436;6.774;2022-12-18T06:15:35;9.00;;;6.50;;
20417;SDS011;10368;51.436;6.774;2022-12-18T06:18:02;7.40;;;6.07;;
20417;SDS011;10368;51.436;6.774;2022-12-18T06:20:29;10.30;;;6.73;;
20417;SDS011;10368;51.436;6.774;2022-12-18T06:22:59;12.83;;;6.23;;
20417;SDS011;10368;51.436;6.774;2022-12-18T06:25:26;8.57;;;6.37;;
20417;SDS011;10368;51.436;6.774;2022-12-18T06:27:53;12.43;;;6.00;;
20417;SDS011;10368;51.436;6.774;2022-12-18T06:30:20;8.53;;;6.20;;
20417;SDS011;10368;51.436;6.774;2022-12-18T06:32:50;10.07;;;6.30;;
20417;SDS011;10368;51.436;6.774;2022-12-18T06:35:22;9.43;;;6.37;;
20417;SDS011;10368;51.436;6.774;2022-12-18T06:37:49;9.87;;;6.30;;
20417;SDS011;10368;51.436;6.774;2022-12-18T06:40:18;9.03;;;5.77;;
20417;SDS011;10368;51.436;6.774;2022-12-18T06:42:45;9.87;;;6.03;;
20417;SDS011;10368;51.436;6.774;2022-12-18T06:45:12;10.57;;;6.00;;
20417;SDS011;10368;51.436;6.774;2022-12-18T06:47:39;11.33;;;6.77;;
20417;SDS011;10368;51.436;6.774;2022-12-18T06:50:06;12.00;;;5.63;;
20417;SDS011;10368;51.436;6.774;2022-12-18T06:52:33;10.70;;;6.37;;
20417;SDS011;10368;51.436;6.774;2022-12-18T06:55:00;8.43;;;6.00;;
20417;SDS011;10368;51.436;6.774;2022-12-18T06:57:27;13.27;;;7.07;;
20417;SDS011;10368;51.436;6.774;2022-12-18T06:59:54;11.53;;;7.00;;
20417;SDS011;10368;51.436;6.774;2022-12-18T07:02:21;10.97;;;7.10;;
20417;SDS011;10368;51.436;6.774;2022-12-18T07:04:48;13.13;;;7.20;;
20417;SDS011;10368;51.436;6.774;2022-12-18T07:07:14;13.33;;;7.37;;
20417;SDS011;10368;51.436;6.774;2022-12-18T07:09:41;13.27;;;6.93;;
20417;SDS011;10368;51.436;6.774;2022-12-18T07:12:08;14.90;;;8.10;;
20417;SDS011;10368;51.436;6.774;2022-12-18T07:14:35;11.30;;;7.03;;
20417;SDS011;10368;51.436;6.774;2022-12-18T07:17:02;11.83;;;6.80;;
20417;SDS011;10368;51.436;6.774;2022-12-18T07:19:30;11.63;;;6.63;;
20417;SDS011;10368;51.436;6.774;2022-12-18T07:21:57;10.40;;;6.10;;
20417;SDS011;10368;51.436;6.774;2022-12-18T07:24:24;11.27;;;7.13;;
20417;SDS011;10368;51.436;6.774;2022-12-18T07:26:51;11.87;;;7.00;;
20417;SDS011;10368;51.436;6.774;2022-12-18T07:29:23;10.93;;;5.97;;
20417;SDS011;10368;51.436;6.774;2022-12-18T07:31:53;11.20;;;6.53;;
20417;SDS011;10368;51.436;6.774;2022-12-18T07:34:20;9.20;;;6.87;;
20417;SDS011;10368;51.436;6.774;2022-12-18T07:36:46;8.53;;;6.00;;
20417;SDS011;10368;51.436;6.774;2022-12-18T07:39:13;11.00;;;6.03;;
20417;SDS011;10368;51.436;6.774;2022-12-18T07:41:40;10.80;;;6.60;;
20417;SDS011;10368;51.436;6.774;2022-12-18T07:44:12;8.87;;;6.03;;
20417;SDS011;10368;51.436;6.774;2022-12-18T07:46:40;8.97;;;5.63;;
20417;SDS011;10368;51.436;6.774;2022-12-18T07:49:07;11.07;;;6.90;;
20417;SDS011;10368;51.436;6.774;2022-12-18T07:51:36;9.57;;;6.80;;
20417;SDS011;10368;51.436;6.774;2022-12-18T07:54:02;9.20;;;6.03;;
20417;SDS011;10368;51.436;6.774;2022-12-18T07:56:30;8.73;;;6.27;;
20417;SDS011;10368;51.436;6.774;2022-12-18T07:58:58;11.17;;;6.63;;
20417;SDS011;10368;51.436;6.774;2022-12-18T08:01:26;9.17;;;6.67;;
20417;SDS011;10368;51.436;6.774;2022-12-18T08:03:53;10.30;;;6.87;;
20417;SDS011;10368;51.436;6.774;2022-12-18T08:06:20;10.20;;;7.17;;
20417;SDS011;10368;51.436;6.774;2022-12-18T08:08:53;10.67;;;7.63;;
20417;SDS011;10368;51.436;6.774;2022-12-18T08:11:21;18.07;;;7.53;;
20417;SDS011;10368;51.436;6.774;2022-12-18T08:13:49;10.77;;;7.27;;
20417;SDS011;10368;51.436;6.774;2022-12-18T08:16:16;12.40;;;6.97;;
20417;SDS011;10368;51.436;6.774;2022-12-18T08:18:45;13.63;;;7.37;;
20417;SDS011;10368;51.436;6.774;2022-12-18T08:21:13;9.63;;;7.03;;
20417;SDS011;10368;51.436;6.774;2022-12-18T08:23:47;14.27;;;6.80;;
20417;SDS011;10368;51.436;6.774;2022-12-18T08:26:16;12.03;;;7.30;;
20417;SDS011;10368;51.436;6.774;2022-12-18T08:28:44;15.83;;;8.67;;
20417;SDS011;10368;51.436;6.774;2022-12-18T08:31:11;14.20;;;9.10;;
20417;SDS011;10368;51.436;6.774;2022-12-18T08:33:38;15.30;;;10.23;;
20417;SDS011;10368;51.436;6.774;2022-12-18T08:36:07;14.30;;;9.60;;
20417;SDS011;10368;51.436;6.774;2022-12-18T08:38:36;13.20;;;9.03;;
20417;SDS011;10368;51.436;6.774;2022-12-18T08:41:04;15.63;;;9.73;;
20417;SDS011;10368;51.436;6.774;2022-12-18T08:43:32;12.80;;;9.40;;
20417;SDS011;10368;51.436;6.774;2022-12-18T08:46:18;23.17;;;9.23;;
20417;SDS011;10368;51.436;6.774;2022-12-18T08:48:47;16.37;;;10.43;;
20417;SDS011;10368;51.436;6.774;2022-12-18T08:51:15;12.87;;;7.67;;
20417;SDS011;10368;51.436;6.774;2022-12-18T08:53:43;13.70;;;7.93;;
20417;SDS011;10368;51.436;6.774;2022-12-18T08:56:13;9.87;;;7.23;;
20417;SDS011;10368;51.436;6.774;2022-12-18T08:58:41;10.90;;;7.23;;
20417;SDS011;10368;51.436;6.774;2022-12-18T09:01:08;10.37;;;6.43;;
20417;SDS011;10368;51.436;6.774;2022-12-18T09:03:37;11.90;;;7.37;;
20417;SDS011;10368;51.436;6.774;2022-12-18T09:06:05;12.83;;;6.87;;
20417;SDS011;10368;51.436;6.774;2022-12-18T09:08:33;11.93;;;8.37;;
20417;SDS011;10368;51.436;6.774;2022-12-18T09:11:00;12.80;;;7.70;;
20417;SDS011;10368;51.436;6.774;2022-12-18T09:13:28;9.47;;;6.80;;
20417;SDS011;10368;51.436;6.774;2022-12-18T09:15:55;10.27;;;7.37;;
20417;SDS011;10368;51.436;6.774;2022-12-18T09:18:22;14.87;;;8.30;;
20417;SDS011;10368;51.436;6.774;2022-12-18T09:20:50;15.30;;;8.17;;
20417;SDS011;10368;51.436;6.774;2022-12-18T09:23:18;10.47;;;6.67;;
20417;SDS011;10368;51.436;6.774;2022-12-18T09:25:46;9.23;;;6.23;;
20417;SDS011;10368;51.436;6.774;2022-12-18T09:28:13;10.53;;;7.20;;
20417;SDS011;10368;51.436;6.774;2022-12-18T09:30:43;11.67;;;6.60;;
20417;SDS011;10368;51.436;6.774;2022-12-18T09:33:11;11.87;;;7.30;;
20417;SDS011;10368;51.436;6.774;2022-12-18T09:35:39;9.23;;;6.37;;
20417;SDS011;10368;51.436;6.774;2022-12-18T09:38:08;10.57;;;6.40;;
20417;SDS011;10368;51.436;6.774;2022-12-18T09:40:43;11.40;;;7.30;;
20417;SDS011;10368;51.436;6.774;2022-12-18T09:43:24;8.90;;;6.63;;
20417;SDS011;10368;51.436;6.774;2022-12-18T09:46:03;10.60;;;6.83;;
20417;SDS011;10368;51.436;6.774;2022-12-18T09:48:41;9.83;;;7.03;;
20417;SDS011;10368;51.436;6.774;2022-12-18T09:53:41;8.47;;;6.37;;
20417;SDS011;10368;51.436;6.774;2022-12-18T09:56:16;9.33;;;5.73;;
20417;SDS011;10368;51.436;6.774;2022-12-18T09:59:02;9.80;;;6.40;;
20417;SDS011;10368;51.436;6.774;2022-12-18T10:01:31;8.13;;;6.00;;
20417;SDS011;10368;51.436;6.774;2022-12-18T10:04:09;9.87;;;6.47;;
20417;SDS011;10368;51.436;6.774;2022-12-18T10:21:05;8.80;;;6.17;;
20417;SDS011;10368;51.436;6.774;2022-12-18T10:23:42;10.47;;;6.07;;
20417;SDS011;10368;51.436;6.774;2022-12-18T10:26:31;8.73;;;5.70;;
20417;SDS011;10368;51.436;6.774;2022-12-18T10:28:58;9.10;;;6.53;;
20417;SDS011;10368;51.436;6.774;2022-12-18T10:31:30;9.53;;;5.97;;
20417;SDS011;10368;51.436;6.774;2022-12-18T10:33:58;11.50;;;7.00;;
20417;SDS011;10368;51.436;6.774;2022-12-18T10:36:25;9.57;;;6.07;;
20417;SDS011;10368;51.436;6.774;2022-12-18T10:38:52;8.40;;;5.77;;
20417;SDS011;10368;51.436;6.774;2022-12-18T10:46:38;9.20;;;6.07;;
20417;SDS011;10368;51.436;6.774;2022-12-18T10:49:05;10.77;;;6.63;;
20417;SDS011;10368;51.436;6.774;2022-12-18T10:51:33;9.73;;;6.27;;
20417;SDS011;10368;51.436;6.774;2022-12-18T10:54:03;9.07;;;5.90;;
20417;SDS011;10368;51.436;6.774;2022-12-18T10:56:35;8.93;;;6.23;;
20417;SDS011;10368;51.436;6.774;2022-12-18T10:59:09;7.37;;;5.93;;
20417;SDS011;10368;51.436;6.774;2022-12-18T11:01:51;10.50;;;6.27;;
20417;SDS011;10368;51.436;6.774;2022-12-18T11:04:32;8.77;;;5.83;;
20417;SDS011;10368;51.436;6.774;2022-12-18T11:07:05;11.77;;;6.73;;
20417;SDS011;10368;51.436;6.774;2022-12-18T11:09:35;8.93;;;6.23;;
20417;SDS011;10368;51.436;6.774;2022-12-18T11:12:04;10.33;;;6.70;;
20417;SDS011;10368;51.436;6.774;2022-12-18T11:14:43;9.00;;;6.40;;
20417;SDS011;10368;51.436;6.774;2022-12-18T11:17:20;6.80;;;5.40;;
20417;SDS011;10368;51.436;6.774;2022-12-18T11:19:53;10.27;;;7.30;;
20417;SDS011;10368;51.436;6.774;2022-12-18T11:22:23;9.33;;;6.23;;
20417;SDS011;10368;51.436;6.774;2022-12-18T11:24:59;11.47;;;8.57;;
20417;SDS011;10368;51.436;6.774;2022-12-18T11:33:06;11.50;;;6.73;;
20417;SDS011;10368;51.436;6.774;2022-12-18T11:38:25;17.10;;;7.33;;
20417;SDS011;10368;51.436;6.774;2022-12-18T11:40:59;9.47;;;6.03;;
20417;SDS011;10368;51.436;6.774;2022-12-18T11:43:38;9.23;;;6.23;;
20417;SDS011;10368;51.436;6.774;2022-12-18T11:46:15;10.37;;;6.30;;
20417;SDS011;10368;51.436;6.774;2022-12-18T11:48:54;12.67;;;6.33;;
20417;SDS011;10368;51.436;6.774;2022-12-18T11:51:34;10.23;;;6.87;;
20417;SDS011;10368;51.436;6.774;2022-12-18T11:54:12;11.30;;;6.77;;
20417;SDS011;10368;51.436;6.774;2022-12-18T11:56:46;8.63;;;6.57;;
20417;SDS011;10368;51.436;6.774;2022-12-18T12:02:09;9.77;;;6.37;;
20417;SDS011;10368;51.436;6.774;2022-12-18T12:11:28;11.00;;;6.70;;
20417;SDS011;10368;51.436;6.774;2022-12-18T12:13:38;9.30;;;6.57;;
20417;SDS011;10368;51.436;6.774;2022-12-18T12:16:29;11.87;;;6.80;;
20417;SDS011;10368;51.436;6.774;2022-12-18T12:27:23;8.70;;;6.40;;
20417;SDS011;10368;51.436;6.774;2022-12-18T12:35:29;11.67;;;7.27;;
20417;SDS011;10368;51.436;6.774;2022-12-18T12:38:16;9.10;;;7.23;;
20417;SDS011;10368;51.436;6.774;2022-12-18T12:40:59;9.33;;;7.13;;
20417;SDS011;10368;51.436;6.774;2022-12-18T12:51:21;12.93;;;7.30;;
20417;SDS011;10368;51.436;6.774;2022-12-18T12:53:54;10.80;;;7.87;;
20417;SDS011;10368;51.436;6.774;2022-12-18T12:56:24;14.47;;;7.77;;
20417;SDS011;10368;51.436;6.774;2022-12-18T13:04:35;13.30;;;8.37;;
20417;SDS011;10368;51.436;6.774;2022-12-18T13:18:31;12.93;;;8.27;;
20417;SDS011;10368;51.436;6.774;2022-12-18T13:23:33;12.37;;;8.87;;
20417;SDS011;10368;51.436;6.774;2022-12-18T13:31:00;14.63;;;8.43;;
20417;SDS011;10368;51.436;6.774;2022-12-18T13:38:41;13.17;;;9.63;;
20417;SDS011;10368;51.436;6.774;2022-12-18T13:43:54;17.40;;;9.47;;
20417;SDS011;10368;51.436;6.774;2022-12-18T13:51:30;13.00;;;9.63;;
20417;SDS011;10368;51.436;6.774;2022-12-18T13:54:01;15.70;;;10.07;;
20417;SDS011;10368;51.436;6.774;2022-12-18T13:56:33;19.17;;;11.63;;
20417;SDS011;10368;51.436;6.774;2022-12-18T14:02:05;23.93;;;13.33;;
20417;SDS011;10368;51.436;6.774;2022-12-18T14:04:39;18.27;;;11.37;;
20417;SDS011;10368;51.436;6.774;2022-12-18T14:09:45;19.30;;;9.67;;
20417;SDS011;10368;51.436;6.774;2022-12-18T14:12:21;18.37;;;11.57;;
20417;SDS011;10368;51.436;6.774;2022-12-18T14:15:21;19.97;;;13.67;;
20417;SDS011;10368;51.436;6.774;2022-12-18T14:20:27;15.63;;;10.10;;
20417;SDS011;10368;51.436;6.774;2022-12-18T14:22:57;17.97;;;11.07;;
20417;SDS011;10368;51.436;6.774;2022-12-18T14:25:28;18.13;;;10.83;;
20417;SDS011;10368;51.436;6.774;2022-12-18T14:28:04;16.70;;;11.00;;
20417;SDS011;10368;51.436;6.774;2022-12-18T14:30:38;23.30;;;14.23;;
20417;SDS011;10368;51.436;6.774;2022-12-18T14:33:11;19.50;;;12.40;;
20417;SDS011;10368;51.436;6.774;2022-12-18T14:36:03;21.40;;;13.90;;
20417;SDS011;10368;51.436;6.774;2022-12-18T14:38:31;20.77;;;12.60;;
20417;SDS011;10368;51.436;6.774;2022-12-18T14:43:38;17.00;;;10.77;;
20417;SDS011;10368;51.436;6.774;2022-12-18T14:48:55;19.67;;;11.30;;
20417;SDS011;10368;51.436;6.774;2022-12-18T14:51:23;16.60;;;11.27;;
20417;SDS011;10368;51.436;6.774;2022-12-18T14:54:01;22.77;;;12.03;;
20417;SDS011;10368;51.436;6.774;2022-12-18T14:56:31;22.33;;;12.27;;
20417;SDS011;10368;51.436;6.774;2022-12-18T14:59:03;15.90;;;10.77;;
20417;SDS011;10368;51.436;6.774;2022-12-18T15:01:33;23.97;;;14.17;;
20417;SDS011;10368;51.436;6.774;2022-12-18T15:04:04;16.63;;;11.50;;
20417;SDS011;10368;51.436;6.774;2022-12-18T15:06:48;19.67;;;12.57;;
20417;SDS011;10368;51.436;6.774;2022-12-18T15:09:28;15.70;;;11.33;;
20417;SDS011;10368;51.436;6.774;2022-12-18T15:11:56;17.60;;;11.57;;
20417;SDS011;10368;51.436;6.774;2022-12-18T15:16:58;22.10;;;13.10;;
20417;SDS011;10368;51.436;6.774;2022-12-18T15:19:32;21.17;;;13.90;;
20417;SDS011;10368;51.436;6.774;2022-12-18T15:22:25;20.80;;;12.37;;
20417;SDS011;10368;51.436;6.774;2022-12-18T15:24:54;20.77;;;13.50;;
20417;SDS011;10368;51.436;6.774;2022-12-18T15:27:32;19.90;;;13.20;;
20417;SDS011;10368;51.436;6.774;2022-12-18T15:32:37;23.43;;;13.07;;
20417;SDS011;10368;51.436;6.774;2022-12-18T15:37:45;20.10;;;13.30;;
20417;SDS011;10368;51.436;6.774;2022-12-18T15:40:14;19.27;;;11.80;;
20417;SDS011;10368;51.436;6.774;2022-12-18T15:42:46;20.70;;;12.60;;
20417;SDS011;10368;51.436;6.774;2022-12-18T15:45:32;20.10;;;13.00;;
20417;SDS011;10368;51.436;6.774;2022-12-18T15:47:59;19.60;;;13.07;;
20417;SDS011;10368;51.436;6.774;2022-12-18T15:50:34;20.47;;;12.47;;
20417;SDS011;10368;51.436;6.774;2022-12-18T15:53:01;18.10;;;12.67;;
20417;SDS011;10368;51.436;6.774;2022-12-18T15:55:33;19.77;;;11.90;;
20417;SDS011;10368;51.436;6.774;2022-12-18T15:58:25;17.97;;;11.77;;
20417;SDS011;10368;51.436;6.774;2022-12-18T16:00:52;18.70;;;12.93;;
20417;SDS011;10368;51.436;6.774;2022-12-18T16:03:23;18.63;;;12.87;;
20417;SDS011;10368;51.436;6.774;2022-12-18T16:05:53;30.00;;;15.33;;
20417;SDS011;10368;51.436;6.774;2022-12-18T16:08:21;18.47;;;12.60;;
20417;SDS011;10368;51.436;6.774;2022-12-18T16:10:49;23.93;;;13.30;;
20417;SDS011;10368;51.436;6.774;2022-12-18T16:13:16;21.23;;;12.57;;
20417;SDS011;10368;51.436;6.774;2022-12-18T16:15:45;18.20;;;12.73;;
20417;SDS011;10368;51.436;6.774;2022-12-18T16:18:13;17.00;;;12.33;;
20417;SDS011;10368;51.436;6.774;2022-12-18T16:20:39;19.50;;;12.27;;
20417;SDS011;10368;51.436;6.774;2022-12-18T16:23:07;19.60;;;12.23;;
20417;SDS011;10368;51.436;6.774;2022-12-18T16:25:34;19.30;;;12.57;;
20417;SDS011;10368;51.436;6.774;2022-12-18T16:28:00;19.87;;;12.73;;
20417;SDS011;10368;51.436;6.774;2022-12-18T16:30:28;20.20;;;13.50;;
20417;SDS011;10368;51.436;6.774;2022-12-18T16:33:03;19.23;;;13.77;;
20417;SDS011;10368;51.436;6.774;2022-12-18T16:35:30;21.60;;;13.53;;
20417;SDS011;10368;51.436;6.774;2022-12-18T16:37:57;18.97;;;13.33;;
20417;SDS011;10368;51.436;6.774;2022-12-18T16:40:23;50.63;;;26.57;;
20417;SDS011;10368;51.436;6.774;2022-12-18T16:42:51;29.90;;;16.63;;
20417;SDS011;10368;51.436;6.774;2022-12-18T16:45:18;24.13;;;14.17;;
20417;SDS011;10368;51.436;6.774;2022-12-18T16:47:45;28.53;;;15.53;;
20417;SDS011;10368;51.436;6.774;2022-12-18T16:50:11;23.83;;;14.73;;
20417;SDS011;10368;51.436;6.774;2022-12-18T16:52:39;24.10;;;15.30;;
20417;SDS011;10368;51.436;6.774;2022-12-18T16:55:06;25.23;;;14.17;;
20417;SDS011;10368;51.436;6.774;2022-12-18T16:57:34;23.43;;;16.37;;
20417;SDS011;10368;51.436;6.774;2022-12-18T17:00:01;33.23;;;19.77;;
20417;SDS011;10368;51.436;6.774;2022-12-18T17:02:31;23.87;;;14.10;;
20417;SDS011;10368;51.436;6.774;2022-12-18T17:04:59;26.83;;;15.40;;
20417;SDS011;10368;51.436;6.774;2022-12-18T17:07:27;24.80;;;15.40;;
20417;SDS011;10368;51.436;6.774;2022-12-18T17:09:54;29.40;;;17.03;;
20417;SDS011;10368;51.436;6.774;2022-12-18T17:12:21;22.57;;;14.90;;
20417;SDS011;10368;51.436;6.774;2022-12-18T17:14:49;25.47;;;16.03;;
20417;SDS011;10368;51.436;6.774;2022-12-18T17:17:16;30.73;;;19.37;;
20417;SDS011;10368;51.436;6.774;2022-12-18T17:19:46;23.67;;;15.93;;
20417;SDS011;10368;51.436;6.774;2022-12-18T17:22:13;27.20;;;15.87;;
20417;SDS011;10368;51.436;6.774;2022-12-18T17:24:40;22.93;;;15.63;;
20417;SDS011;10368;51.436;6.774;2022-12-18T17:27:07;30.33;;;16.20;;